sensor_id;sensor_type;location;lat;lon;timestamp;pressure;altitude;pressure_sealevel;temperature;humidity
39491;BME280;25175;50.140;18.990;2023-04-01T07:13:06;96636.97;;;8.21;60.36
39491;BME280;25175;50.140;18.990;2023-04-01T07:16:25;96858.25;;;9.59;60.09
39491;BME280;25175;50.140;18.990;2023-04-01T07:19:42;96858.00;;;9.60;59.96
39491;BME280;25175;50.140;18.990;2023-04-01T07:22:56;96835.66;;;9.53;60.44
39491;BME280;25175;50.140;18.990;2023-04-01T07:26:17;96850.47;;;9.64;60.81
39491;BME280;25175;50.140;18.990;2023-04-01T07:29:42;96858.75;;;9.77;59.76
39491;BME280;25175;50.140;18.990;2023-04-01T07:32:58;96859.66;;;9.83;59.55
39491;BME280;25175;50.140;18.990;2023-04-01T07:36:14;96866.22;;;9.85;59.67
39491;BME280;25175;50.140;18.990;2023-04-01T07:39:35;96861.13;;;9.79;59.13
39491;BME280;25175;50.140;18.990;2023-04-01T07:43:49;96874.16;;;9.90;59.42
39491;BME280;25175;50.140;18.990;2023-04-01T07:47:23;96871.84;;;9.94;59.27
39491;BME280;25175;50.140;18.990;2023-04-01T07:50:51;96870.63;;;10.01;59.53
39491;BME280;25175;50.140;18.990;2023-04-01T07:54:12;96858.50;;;9.95;59.24
39491;BME280;25175;50.140;18.990;2023-04-01T07:57:35;96871.00;;;10.10;59.29
39491;BME280;25175;50.140;18.990;2023-04-01T08:00:56;96872.09;;;10.14;59.33
39491;BME280;25175;50.140;18.990;2023-04-01T08:04:34;96875.22;;;10.11;59.58
39491;BME280;25175;50.140;18.990;2023-04-01T08:08:09;96888.44;;;10.21;59.75
39491;BME280;25175;50.140;18.990;2023-04-01T08:12:04;96886.91;;;10.25;60.22
39491;BME280;25175;50.140;18.990;2023-04-01T08:15:49;96886.91;;;10.25;60.16
39491;BME280;25175;50.140;18.990;2023-04-01T08:19:26;96890.56;;;10.24;59.93
39491;BME280;25175;50.140;18.990;2023-04-01T08:22:47;96897.63;;;10.23;59.77
39491;BME280;25175;50.140;18.990;2023-04-01T08:26:10;96898.38;;;10.19;59.59
39491;BME280;25175;50.140;18.990;2023-04-01T08:29:30;96895.50;;;10.20;59.41
39491;BME280;25175;50.140;18.990;2023-04-01T08:32:47;96885.75;;;10.16;59.21
39491;BME280;25175;50.140;18.990;2023-04-01T08:36:08;96893.00;;;10.30;59.35
39491;BME280;25175;50.140;18.990;2023-04-01T08:39:22;96891.97;;;10.31;58.97
39491;BME280;25175;50.140;18.990;2023-04-01T08:42:55;96892.25;;;10.35;59.13
39491;BME280;25175;50.140;18.990;2023-04-01T08:50:28;96885.13;;;10.52;58.74
39491;BME280;25175;50.140;18.990;2023-04-01T08:58:52;96897.69;;;10.50;60.48
39491;BME280;25175;50.140;18.990;2023-04-01T09:02:37;96893.94;;;10.41;61.53
39491;BME280;25175;50.140;18.990;2023-04-01T09:06:40;96909.97;;;10.44;62.81
39491;BME280;25175;50.140;18.990;2023-04-01T09:10:28;96899.56;;;10.54;64.06
39491;BME280;25175;50.140;18.990;2023-04-01T09:14:37;96909.94;;;10.66;63.73
39491;BME280;25175;50.140;18.990;2023-04-01T09:18:33;96896.34;;;10.69;62.59
39491;BME280;25175;50.140;18.990;2023-04-01T09:22:13;96895.88;;;10.77;62.37
39491;BME280;25175;50.140;18.990;2023-04-01T09:26:03;96893.31;;;10.82;61.88
39491;BME280;25175;50.140;18.990;2023-04-01T09:29:40;96900.03;;;10.94;61.93
39491;BME280;25175;50.140;18.990;2023-04-01T09:33:34;96884.94;;;11.11;60.92
39491;BME280;25175;50.140;18.990;2023-04-01T09:37:35;96891.63;;;11.24;59.40
39491;BME280;25175;50.140;18.990;2023-04-01T09:41:11;96895.78;;;11.20;58.46
39491;BME280;25175;50.140;18.990;2023-04-01T09:44:58;96897.28;;;11.11;59.23
39491;BME280;25175;50.140;18.990;2023-04-01T09:48:24;96887.97;;;10.98;58.81
39491;BME280;25175;50.140;18.990;2023-04-01T09:51:57;96903.53;;;11.05;59.22
39491;BME280;25175;50.140;18.990;2023-04-01T10:20:43;96911.78;;;10.92;63.22
39491;BME280;25175;50.140;18.990;2023-04-01T10:28:25;96905.56;;;10.98;67.08
39491;BME280;25175;50.140;18.990;2023-04-01T10:36:50;96907.03;;;11.15;64.26
39491;BME280;25175;50.140;18.990;2023-04-01T10:40:36;96914.41;;;11.18;63.34
39491;BME280;25175;50.140;18.990;2023-04-01T10:44:17;96873.53;;;10.96;62.46
39491;BME280;25175;50.140;18.990;2023-04-01T10:48:14;96914.13;;;11.15;62.00
39491;BME280;25175;50.140;18.990;2023-04-01T10:55:43;96908.88;;;11.15;61.61
39491;BME280;25175;50.140;18.990;2023-04-01T11:13:00;96829.84;;;10.85;60.84
39491;BME280;25175;50.140;18.990;2023-04-01T11:21:42;96922.03;;;11.20;63.34
39491;BME280;25175;50.140;18.990;2023-04-01T11:25:29;96909.97;;;11.19;63.66
39491;BME280;25175;50.140;18.990;2023-04-01T11:29:55;96895.94;;;11.08;63.32
39491;BME280;25175;50.140;18.990;2023-04-01T11:33:22;96898.22;;;11.26;65.77
39491;BME280;25175;50.140;18.990;2023-04-01T11:36:48;96901.94;;;11.35;65.05
39491;BME280;25175;50.140;18.990;2023-04-01T11:40:23;96902.28;;;11.44;63.76
39491;BME280;25175;50.140;18.990;2023-04-01T11:44:17;96905.47;;;11.46;63.47
39491;BME280;25175;50.140;18.990;2023-04-01T11:47:58;96910.75;;;11.56;63.74
39491;BME280;25175;50.140;18.990;2023-04-01T11:51:41;96910.06;;;11.65;64.39
39491;BME280;25175;50.140;18.990;2023-04-01T11:55:10;96908.03;;;11.77;63.72
39491;BME280;25175;50.140;18.990;2023-04-01T12:05:57;96925.22;;;11.90;61.55
39491;BME280;25175;50.140;18.990;2023-04-01T12:09:15;96927.78;;;11.85;59.89
39491;BME280;25175;50.140;18.990;2023-04-01T12:12:38;96925.91;;;11.80;60.09
39491;BME280;25175;50.140;18.990;2023-04-01T12:16:13;96930.84;;;11.72;60.33
39491;BME280;25175;50.140;18.990;2023-04-01T12:19:43;96938.13;;;11.60;61.32
39491;BME280;25175;50.140;18.990;2023-04-01T12:23:15;96933.34;;;11.52;62.50
39491;BME280;25175;50.140;18.990;2023-04-01T12:26:59;96935.06;;;11.41;62.13
39491;BME280;25175;50.140;18.990;2023-04-01T12:30:49;96922.56;;;11.22;62.58
39491;BME280;25175;50.140;18.990;2023-04-01T12:38:17;96803.75;;;10.42;63.34
39491;BME280;25175;50.140;18.990;2023-04-01T12:41:43;96937.59;;;11.26;64.04
39491;BME280;25175;50.140;18.990;2023-04-01T12:49:27;96927.81;;;11.22;64.09
39491;BME280;25175;50.140;18.990;2023-04-01T12:53:10;96924.66;;;11.20;63.89
39491;BME280;25175;50.140;18.990;2023-04-01T12:56:49;96916.97;;;11.13;64.55
39491;BME280;25175;50.140;18.990;2023-04-01T13:04:01;96933.88;;;11.22;64.53
39491;BME280;25175;50.140;18.990;2023-04-01T13:07:42;96941.53;;;11.29;64.37
39491;BME280;25175;50.140;18.990;2023-04-01T13:11:24;96949.72;;;11.32;64.18
39491;BME280;25175;50.140;18.990;2023-04-01T13:14:58;96940.84;;;11.38;64.59
39491;BME280;25175;50.140;18.990;2023-04-01T13:18:37;96932.78;;;11.50;65.01
39491;BME280;25175;50.140;18.990;2023-04-01T13:22:09;96931.78;;;11.56;62.17
39491;BME280;25175;50.140;18.990;2023-04-01T13:25:31;96938.13;;;11.60;61.84
39491;BME280;25175;50.140;18.990;2023-04-01T13:28:52;96853.50;;;11.16;61.27
39491;BME280;25175;50.140;18.990;2023-04-01T13:32:20;96941.63;;;11.70;61.26
39491;BME280;25175;50.140;18.990;2023-04-01T13:35:48;96944.53;;;11.74;61.86
39491;BME280;25175;50.140;18.990;2023-04-01T13:39:33;96950.31;;;11.76;62.02
39491;BME280;25175;50.140;18.990;2023-04-01T13:43:15;96947.22;;;11.79;62.29
39491;BME280;25175;50.140;18.990;2023-04-01T13:46:47;96947.22;;;11.84;62.32
39491;BME280;25175;50.140;18.990;2023-04-01T13:50:26;96944.59;;;11.84;61.71
39491;BME280;25175;50.140;18.990;2023-04-01T13:54:08;96943.28;;;11.81;61.53
39491;BME280;25175;50.140;18.990;2023-04-01T14:01:37;96954.50;;;11.72;61.13
39491;BME280;25175;50.140;18.990;2023-04-01T14:05:14;96956.06;;;11.68;60.84
39491;BME280;25175;50.140;18.990;2023-04-01T14:08:56;96960.22;;;11.64;61.01
39491;BME280;25175;50.140;18.990;2023-04-01T14:12:32;96949.69;;;11.59;61.50
39491;BME280;25175;50.140;18.990;2023-04-01T14:27:48;96981.41;;;11.52;64.54
39491;BME280;25175;50.140;18.990;2023-04-01T14:35:22;96973.56;;;11.26;65.24
39491;BME280;25175;50.140;18.990;2023-04-01T14:38:55;96966.31;;;11.11;65.21
39491;BME280;25175;50.140;18.990;2023-04-01T14:42:37;96982.78;;;11.07;65.64
39491;BME280;25175;50.140;18.990;2023-04-01T14:50:23;96955.50;;;10.60;65.62
39491;BME280;25175;50.140;18.990;2023-04-01T14:54:06;97007.66;;;10.78;66.02
39491;BME280;25175;50.140;18.990;2023-04-01T15:05:32;97011.28;;;10.34;65.46
39491;BME280;25175;50.140;18.990;2023-04-01T15:08:59;96999.50;;;10.15;64.91
39491;BME280;25175;50.140;18.990;2023-04-01T15:12:24;96999.34;;;10.05;64.88
39491;BME280;25175;50.140;18.990;2023-04-01T15:19:59;97007.84;;;9.95;66.66
39491;BME280;25175;50.140;18.990;2023-04-01T15:23:32;96981.50;;;9.85;66.97
39491;BME280;25175;50.140;18.990;2023-04-01T15:27:11;97012.03;;;10.13;66.98
39491;BME280;25175;50.140;18.990;2023-04-01T15:30:33;96998.44;;;10.16;66.94
39491;BME280;25175;50.140;18.990;2023-04-01T15:34:07;97015.16;;;10.31;67.05
39491;BME280;25175;50.140;18.990;2023-04-01T15:37:37;97014.69;;;10.34;67.25
39491;BME280;25175;50.140;18.990;2023-04-01T15:41:43;97017.16;;;10.41;67.11
39491;BME280;25175;50.140;18.990;2023-04-01T15:45:31;97019.34;;;10.49;67.21
39491;BME280;25175;50.140;18.990;2023-04-01T15:49:00;97035.16;;;10.54;67.17
39491;BME280;25175;50.140;18.990;2023-04-01T15:53:02;97034.91;;;10.55;66.67
39491;BME280;25175;50.140;18.990;2023-04-01T15:56:19;97045.41;;;10.55;66.76
39491;BME280;25175;50.140;18.990;2023-04-01T15:59:58;97037.41;;;10.45;66.23
39491;BME280;25175;50.140;18.990;2023-04-01T16:03:35;97047.78;;;10.57;66.74
39491;BME280;25175;50.140;18.990;2023-04-01T16:07:03;97049.38;;;10.58;67.04
39491;BME280;25175;50.140;18.990;2023-04-01T16:10:38;97060.19;;;10.61;67.05
39491;BME280;25175;50.140;18.990;2023-04-01T16:14:12;97057.31;;;10.63;66.72
39491;BME280;25175;50.140;18.990;2023-04-01T16:17:44;97062.56;;;10.63;66.64
39491;BME280;25175;50.140;18.990;2023-04-01T16:21:04;97067.16;;;10.56;66.03
39491;BME280;25175;50.140;18.990;2023-04-01T16:24:32;97066.63;;;10.54;66.31
39491;BME280;25175;50.140;18.990;2023-04-01T16:27:56;97070.53;;;10.51;66.15
39491;BME280;25175;50.140;18.990;2023-04-01T16:31:34;97086.41;;;10.45;65.55
39491;BME280;25175;50.140;18.990;2023-04-01T16:35:03;97065.94;;;10.42;65.33
39491;BME280;25175;50.140;18.990;2023-04-01T16:38:31;97063.78;;;10.39;65.34
39491;BME280;25175;50.140;18.990;2023-04-01T16:41:49;97064.81;;;10.38;65.54
39491;BME280;25175;50.140;18.990;2023-04-01T16:45:21;97062.28;;;10.43;65.74
39491;BME280;25175;50.140;18.990;2023-04-01T16:49:03;97078.41;;;10.51;65.79
39491;BME280;25175;50.140;18.990;2023-04-01T16:52:36;97080.28;;;10.56;65.97
39491;BME280;25175;50.140;18.990;2023-04-01T16:56:02;97081.97;;;10.45;66.03
39491;BME280;25175;50.140;18.990;2023-04-01T16:59:24;97092.53;;;10.50;65.62
39491;BME280;25175;50.140;18.990;2023-04-01T17:03:12;97099.53;;;10.45;65.46
39491;BME280;25175;50.140;18.990;2023-04-01T17:06:39;97104.69;;;10.40;65.51
39491;BME280;25175;50.140;18.990;2023-04-01T17:10:07;97101.38;;;10.28;65.75
39491;BME280;25175;50.140;18.990;2023-04-01T17:13:41;97118.69;;;10.29;65.55
39491;BME280;25175;50.140;18.990;2023-04-01T17:17:12;97123.63;;;10.25;65.52
39491;BME280;25175;50.140;18.990;2023-04-01T17:20:50;97131.97;;;10.22;65.55
39491;BME280;25175;50.140;18.990;2023-04-01T17:24:25;97138.72;;;10.18;65.11
39491;BME280;25175;50.140;18.990;2023-04-01T17:27:55;97145.38;;;10.09;65.27
39491;BME280;25175;50.140;18.990;2023-04-01T17:31:22;97146.53;;;10.02;65.74
39491;BME280;25175;50.140;18.990;2023-04-01T17:35:19;97146.94;;;9.94;65.72
39491;BME280;25175;50.140;18.990;2023-04-01T17:39:39;97201.56;;;9.85;66.34
39491;BME280;25175;50.140;18.990;2023-04-01T17:46:54;97169.56;;;9.72;66.46
39491;BME280;25175;50.140;18.990;2023-04-01T17:50:25;97174.72;;;9.67;66.90
39491;BME280;25175;50.140;18.990;2023-04-01T18:02:01;97171.78;;;9.63;67.13
39491;BME280;25175;50.140;18.990;2023-04-01T18:06:02;97177.47;;;9.60;67.16
39491;BME280;25175;50.140;18.990;2023-04-01T18:10:24;97186.50;;;9.53;66.68
39491;BME280;25175;50.140;18.990;2023-04-01T18:14:14;97192.63;;;9.47;66.71
39491;BME280;25175;50.140;18.990;2023-04-01T18:21:43;97206.00;;;9.34;67.38
39491;BME280;25175;50.140;18.990;2023-04-01T18:25:12;97206.91;;;9.28;67.78
39491;BME280;25175;50.140;18.990;2023-04-01T18:28:48;97208.72;;;9.27;67.78
39491;BME280;25175;50.140;18.990;2023-04-01T18:32:44;97146.22;;;8.80;67.66
39491;BME280;25175;50.140;18.990;2023-04-01T18:40:41;97223.56;;;9.22;67.68
39491;BME280;25175;50.140;18.990;2023-04-01T18:44:48;97217.28;;;9.23;67.49
39491;BME280;25175;50.140;18.990;2023-04-01T18:48:32;97230.91;;;9.25;67.45
39491;BME280;25175;50.140;18.990;2023-04-01T18:57:11;97242.66;;;9.34;67.33
39491;BME280;25175;50.140;18.990;2023-04-01T19:01:16;97224.75;;;9.42;67.08
39491;BME280;25175;50.140;18.990;2023-04-01T19:05:11;96930.88;;;7.61;66.64
39491;BME280;25175;50.140;18.990;2023-04-01T19:09:11;97233.41;;;9.43;66.60
39491;BME280;25175;50.140;18.990;2023-04-01T19:13:19;97245.81;;;9.36;67.19
39491;BME280;25175;50.140;18.990;2023-04-01T19:17:38;97259.94;;;9.35;67.07
39491;BME280;25175;50.140;18.990;2023-04-01T19:21:27;97262.22;;;9.31;67.27
39491;BME280;25175;50.140;18.990;2023-04-01T19:26:00;97252.22;;;9.28;67.43
39491;BME280;25175;50.140;18.990;2023-04-01T19:33:44;97278.16;;;9.18;67.60
39491;BME280;25175;50.140;18.990;2023-04-01T19:37:51;97266.78;;;9.13;68.00
39491;BME280;25175;50.140;18.990;2023-04-01T19:45:40;97284.53;;;9.22;67.70
39491;BME280;25175;50.140;18.990;2023-04-01T19:49:47;97294.44;;;9.32;67.70
39491;BME280;25175;50.140;18.990;2023-04-01T19:53:21;97292.94;;;9.36;67.33
39491;BME280;25175;50.140;18.990;2023-04-01T20:00:44;97297.38;;;9.47;67.10
39491;BME280;25175;50.140;18.990;2023-04-01T20:04:37;97295.13;;;9.50;66.99
39491;BME280;25175;50.140;18.990;2023-04-01T20:11:57;97293.94;;;9.58;66.58
39491;BME280;25175;50.140;18.990;2023-04-01T20:15:36;97306.47;;;9.56;66.52
39491;BME280;25175;50.140;18.990;2023-04-01T20:18:52;97300.44;;;9.55;66.60
39491;BME280;25175;50.140;18.990;2023-04-01T20:22:33;97301.56;;;9.59;66.42
39491;BME280;25175;50.140;18.990;2023-04-01T20:26:08;97305.00;;;9.60;66.54
39491;BME280;25175;50.140;18.990;2023-04-01T20:29:38;97307.63;;;9.60;66.64
39491;BME280;25175;50.140;18.990;2023-04-01T20:33:20;97285.78;;;9.43;66.60
39491;BME280;25175;50.140;18.990;2023-04-01T20:36:56;97322.19;;;9.56;66.65
39491;BME280;25175;50.140;18.990;2023-04-01T20:40:31;97315.38;;;9.55;66.54
39491;BME280;25175;50.140;18.990;2023-04-01T20:44:02;97322.66;;;9.53;66.85
39491;BME280;25175;50.140;18.990;2023-04-01T20:47:25;97330.53;;;9.53;66.84
39491;BME280;25175;50.140;18.990;2023-04-01T20:59:12;97322.19;;;9.56;66.67
39491;BME280;25175;50.140;18.990;2023-04-01T21:07:14;97334.34;;;9.62;66.54
39491;BME280;25175;50.140;18.990;2023-04-01T21:10:41;97338.69;;;9.68;66.32
39491;BME280;25175;50.140;18.990;2023-04-01T21:17:58;97335.03;;;9.69;65.73
39491;BME280;25175;50.140;18.990;2023-04-01T21:22:12;97353.59;;;9.79;65.52
39491;BME280;25175;50.140;18.990;2023-04-01T21:25:58;97345.88;;;9.72;65.46
39491;BME280;25175;50.140;18.990;2023-04-01T21:29:44;97362.06;;;9.81;65.69
39491;BME280;25175;50.140;18.990;2023-04-01T21:33:23;97366.25;;;9.82;65.61
39491;BME280;25175;50.140;18.990;2023-04-01T21:36:57;97361.03;;;9.82;65.61
39491;BME280;25175;50.140;18.990;2023-04-01T21:40:51;97355.19;;;9.80;65.70
39491;BME280;25175;50.140;18.990;2023-04-01T21:44:48;97364.06;;;9.79;65.72
39491;BME280;25175;50.140;18.990;2023-04-01T21:48:53;97356.19;;;9.79;65.75
39491;BME280;25175;50.140;18.990;2023-04-01T21:52:35;97368.53;;;9.78;65.69
39491;BME280;25175;50.140;18.990;2023-04-01T21:56:28;97367.38;;;9.74;65.80
39491;BME280;25175;50.140;18.990;2023-04-01T22:00:09;97360.56;;;9.73;66.09
39491;BME280;25175;50.140;18.990;2023-04-01T22:03:53;97374.44;;;9.74;66.02
39491;BME280;25175;50.140;18.990;2023-04-01T22:07:15;97364.97;;;9.73;65.99
39491;BME280;25175;50.140;18.990;2023-04-01T22:14:45;97375.47;;;9.73;66.08
39491;BME280;25175;50.140;18.990;2023-04-01T22:18:09;97383.78;;;9.70;66.05
39491;BME280;25175;50.140;18.990;2023-04-01T22:21:58;97388.44;;;9.68;66.28
39491;BME280;25175;50.140;18.990;2023-04-01T22:25:21;97392.66;;;9.69;66.22
39491;BME280;25175;50.140;18.990;2023-04-01T22:37:14;97398.81;;;9.63;66.40
39491;BME280;25175;50.140;18.990;2023-04-01T22:40:38;97387.06;;;9.65;66.57
39491;BME280;25175;50.140;18.990;2023-04-01T22:44:20;97400.16;;;9.65;66.57
39491;BME280;25175;50.140;18.990;2023-04-01T22:47:42;97392.31;;;9.65;66.35
39491;BME280;25175;50.140;18.990;2023-04-01T22:51:21;97364.53;;;9.41;66.53
39491;BME280;25175;50.140;18.990;2023-04-01T22:54:36;97385.72;;;9.51;67.04
39491;BME280;25175;50.140;18.990;2023-04-01T22:58:03;97423.63;;;9.49;67.18
39491;BME280;25175;50.140;18.990;2023-04-01T23:01:20;97391.75;;;9.52;67.10
39491;BME280;25175;50.140;18.990;2023-04-01T23:04:35;97411.09;;;9.51;66.99
39491;BME280;25175;50.140;18.990;2023-04-01T23:07:58;97366.38;;;9.29;67.15
39491;BME280;25175;50.140;18.990;2023-04-01T23:11:17;97401.88;;;9.48;67.38
39491;BME280;25175;50.140;18.990;2023-04-01T23:14:43;97408.03;;;9.54;67.30
39491;BME280;25175;50.140;18.990;2023-04-01T23:18:22;97403.69;;;9.59;67.14
39491;BME280;25175;50.140;18.990;2023-04-01T23:21:53;97380.16;;;9.48;66.90
39491;BME280;25175;50.140;18.990;2023-04-01T23:29:52;97413.59;;;9.69;66.78
39491;BME280;25175;50.140;18.990;2023-04-01T23:33:10;97419.88;;;9.68;66.78
39491;BME280;25175;50.140;18.990;2023-04-01T23:36:25;97418.97;;;9.62;66.75
39491;BME280;25175;50.140;18.990;2023-04-01T23:39:40;97422.84;;;9.60;66.95
39491;BME280;25175;50.140;18.990;2023-04-01T23:43:12;97430.47;;;9.61;66.99
39491;BME280;25175;50.140;18.990;2023-04-01T23:46:32;97414.03;;;9.31;66.79
39491;BME280;25175;50.140;18.990;2023-04-01T23:49:50;97427.59;;;9.63;66.98
39491;BME280;25175;50.140;18.990;2023-04-01T23:54:02;97435.72;;;9.61;67.17
39491;BME280;25175;50.140;18.990;2023-04-01T23:57:21;97442.53;;;9.62;67.18
